sensor_id;sensor_type;location;lat;lon;timestamp;temperature;humidity
49124;DHT22;48506;48.202;16.274;2023-11-22T00:01:42;9.40;99.90
49124;DHT22;48506;48.202;16.274;2023-11-22T00:04:13;9.30;99.90
49124;DHT22;48506;48.202;16.274;2023-11-22T00:06:39;9.30;99.90
49124;DHT22;48506;48.202;16.274;2023-11-22T00:09:05;9.30;99.90
49124;DHT22;48506;48.202;16.274;2023-11-22T00:11:33;9.30;99.90
49124;DHT22;48506;48.202;16.274;2023-11-22T00:13:59;9.20;99.90
49124;DHT22;48506;48.202;16.274;2023-11-22T00:16:25;9.20;99.90
49124;DHT22;48506;48.202;16.274;2023-11-22T00:18:51;9.20;99.90
49124;DHT22;48506;48.202;16.274;2023-11-22T00:21:17;9.20;99.90
49124;DHT22;48506;48.202;16.274;2023-11-22T00:23:45;9.20;99.90
49124;DHT22;48506;48.202;16.274;2023-11-22T00:26:12;9.20;99.90
49124;DHT22;48506;48.202;16.274;2023-11-22T00:28:38;9.10;99.90
49124;DHT22;48506;48.202;16.274;2023-11-22T00:31:04;9.10;99.90
49124;DHT22;48506;48.202;16.274;2023-11-22T00:33:30;9.10;99.90
49124;DHT22;48506;48.202;16.274;2023-11-22T00:35:57;9.10;99.90
49124;DHT22;48506;48.202;16.274;2023-11-22T00:38:23;9.10;99.90
49124;DHT22;48506;48.202;16.274;2023-11-22T00:40:49;9.20;99.90
49124;DHT22;48506;48.202;16.274;2023-11-22T00:43:19;9.20;99.90
49124;DHT22;48506;48.202;16.274;2023-11-22T00:45:45;9.20;99.90
49124;DHT22;48506;48.202;16.274;2023-11-22T00:48:11;9.10;99.90
49124;DHT22;48506;48.202;16.274;2023-11-22T00:50:37;9.10;99.90
49124;DHT22;48506;48.202;16.274;2023-11-22T00:53:03;9.00;99.70
49124;DHT22;48506;48.202;16.274;2023-11-22T00:55:29;8.90;99.90
49124;DHT22;48506;48.202;16.274;2023-11-22T00:57:55;8.90;99.80
49124;DHT22;48506;48.202;16.274;2023-11-22T01:00:27;8.80;99.50
49124;DHT22;48506;48.202;16.274;2023-11-22T01:02:54;8.70;99.50
49124;DHT22;48506;48.202;16.274;2023-11-22T01:05:21;8.70;99.40
49124;DHT22;48506;48.202;16.274;2023-11-22T01:07:48;8.60;99.40
49124;DHT22;48506;48.202;16.274;2023-11-22T01:10:14;8.50;99.20
49124;DHT22;48506;48.202;16.274;2023-11-22T01:12:41;8.50;99.30
49124;DHT22;48506;48.202;16.274;2023-11-22T01:15:08;8.40;99.50
49124;DHT22;48506;48.202;16.274;2023-11-22T01:17:35;8.40;99.70
49124;DHT22;48506;48.202;16.274;2023-11-22T01:20:02;8.40;99.90
49124;DHT22;48506;48.202;16.274;2023-11-22T01:22:29;8.30;99.60
49124;DHT22;48506;48.202;16.274;2023-11-22T01:24:55;8.30;99.90
49124;DHT22;48506;48.202;16.274;2023-11-22T01:27:21;8.20;99.90
49124;DHT22;48506;48.202;16.274;2023-11-22T01:29:47;8.20;99.90
49124;DHT22;48506;48.202;16.274;2023-11-22T01:32:13;8.10;99.90
49124;DHT22;48506;48.202;16.274;2023-11-22T01:34:42;8.00;99.90
49124;DHT22;48506;48.202;16.274;2023-11-22T01:37:08;7.90;99.90
49124;DHT22;48506;48.202;16.274;2023-11-22T01:39:34;7.90;99.90
49124;DHT22;48506;48.202;16.274;2023-11-22T01:42:00;7.80;99.90
49124;DHT22;48506;48.202;16.274;2023-11-22T01:44:27;7.80;99.90
49124;DHT22;48506;48.202;16.274;2023-11-22T01:46:52;7.70;99.90
49124;DHT22;48506;48.202;16.274;2023-11-22T01:49:20;7.60;99.90
49124;DHT22;48506;48.202;16.274;2023-11-22T01:51:46;7.60;99.90
49124;DHT22;48506;48.202;16.274;2023-11-22T01:54:12;7.60;99.90
49124;DHT22;48506;48.202;16.274;2023-11-22T01:56:38;7.50;99.90
49124;DHT22;48506;48.202;16.274;2023-11-22T01:59:05;7.50;99.90
49124;DHT22;48506;48.202;16.274;2023-11-22T02:01:31;7.40;99.90
49124;DHT22;48506;48.202;16.274;2023-11-22T02:03:58;7.40;99.90
49124;DHT22;48506;48.202;16.274;2023-11-22T02:06:24;7.30;99.90
49124;DHT22;48506;48.202;16.274;2023-11-22T02:08:51;7.30;99.90
49124;DHT22;48506;48.202;16.274;2023-11-22T02:11:18;7.20;99.90
49124;DHT22;48506;48.202;16.274;2023-11-22T02:13:48;7.20;99.90
49124;DHT22;48506;48.202;16.274;2023-11-22T02:16:18;7.20;99.90
49124;DHT22;48506;48.202;16.274;2023-11-22T02:18:46;7.20;99.90
49124;DHT22;48506;48.202;16.274;2023-11-22T02:21:13;7.10;99.90
49124;DHT22;48506;48.202;16.274;2023-11-22T02:23:40;7.10;99.90
49124;DHT22;48506;48.202;16.274;2023-11-22T02:26:08;7.10;99.90
49124;DHT22;48506;48.202;16.274;2023-11-22T02:28:34;7.10;99.90
49124;DHT22;48506;48.202;16.274;2023-11-22T02:31:01;7.00;99.90
49124;DHT22;48506;48.202;16.274;2023-11-22T02:33:29;7.00;99.90
49124;DHT22;48506;48.202;16.274;2023-11-22T02:35:55;7.00;99.90
49124;DHT22;48506;48.202;16.274;2023-11-22T02:38:22;7.00;99.90
49124;DHT22;48506;48.202;16.274;2023-11-22T02:40:49;7.00;99.90
49124;DHT22;48506;48.202;16.274;2023-11-22T02:43:16;7.00;99.90
49124;DHT22;48506;48.202;16.274;2023-11-22T02:45:43;7.00;99.90
49124;DHT22;48506;48.202;16.274;2023-11-22T02:48:09;6.90;99.90
49124;DHT22;48506;48.202;16.274;2023-11-22T02:50:36;6.90;99.90
49124;DHT22;48506;48.202;16.274;2023-11-22T02:53:03;6.90;99.90
49124;DHT22;48506;48.202;16.274;2023-11-22T02:55:29;6.90;99.90
49124;DHT22;48506;48.202;16.274;2023-11-22T02:57:56;6.90;99.90
49124;DHT22;48506;48.202;16.274;2023-11-22T03:00:21;6.90;99.90
49124;DHT22;48506;48.202;16.274;2023-11-22T03:02:48;6.90;99.90
49124;DHT22;48506;48.202;16.274;2023-11-22T03:05:20;6.90;99.90
49124;DHT22;48506;48.202;16.274;2023-11-22T03:07:47;6.90;99.90
49124;DHT22;48506;48.202;16.274;2023-11-22T03:10:14;6.80;99.90
49124;DHT22;48506;48.202;16.274;2023-11-22T03:12:40;6.80;99.90
49124;DHT22;48506;48.202;16.274;2023-11-22T03:15:06;6.70;99.90
49124;DHT22;48506;48.202;16.274;2023-11-22T03:17:32;6.70;99.90
49124;DHT22;48506;48.202;16.274;2023-11-22T03:19:58;6.70;99.90
49124;DHT22;48506;48.202;16.274;2023-11-22T03:22:27;6.70;99.90
49124;DHT22;48506;48.202;16.274;2023-11-22T03:24:56;6.70;99.90
49124;DHT22;48506;48.202;16.274;2023-11-22T03:27:24;6.70;99.90
49124;DHT22;48506;48.202;16.274;2023-11-22T03:29:51;6.60;99.90
49124;DHT22;48506;48.202;16.274;2023-11-22T03:32:17;6.70;99.90
49124;DHT22;48506;48.202;16.274;2023-11-22T03:34:44;6.70;99.90
49124;DHT22;48506;48.202;16.274;2023-11-22T03:37:09;6.70;99.90
49124;DHT22;48506;48.202;16.274;2023-11-22T03:39:36;6.70;99.90
49124;DHT22;48506;48.202;16.274;2023-11-22T03:42:02;6.70;99.90
49124;DHT22;48506;48.202;16.274;2023-11-22T03:44:29;6.70;99.90
49124;DHT22;48506;48.202;16.274;2023-11-22T03:46:55;6.80;99.90
49124;DHT22;48506;48.202;16.274;2023-11-22T03:49:22;6.80;99.90
49124;DHT22;48506;48.202;16.274;2023-11-22T03:51:48;6.80;99.90
49124;DHT22;48506;48.202;16.274;2023-11-22T03:54:14;6.80;99.90
49124;DHT22;48506;48.202;16.274;2023-11-22T03:56:40;6.70;99.90
49124;DHT22;48506;48.202;16.274;2023-11-22T03:59:06;6.70;99.90
49124;DHT22;48506;48.202;16.274;2023-11-22T04:01:32;6.70;99.90
49124;DHT22;48506;48.202;16.274;2023-11-22T04:03:58;6.70;99.90
49124;DHT22;48506;48.202;16.274;2023-11-22T04:06:24;6.70;99.90
49124;DHT22;48506;48.202;16.274;2023-11-22T04:08:50;6.60;99.90
49124;DHT22;48506;48.202;16.274;2023-11-22T04:11:16;6.60;99.90
49124;DHT22;48506;48.202;16.274;2023-11-22T04:13:43;6.60;99.90
49124;DHT22;48506;48.202;16.274;2023-11-22T04:16:09;6.50;99.90
49124;DHT22;48506;48.202;16.274;2023-11-22T04:18:39;6.50;99.90
49124;DHT22;48506;48.202;16.274;2023-11-22T04:21:06;6.40;99.90
49124;DHT22;48506;48.202;16.274;2023-11-22T04:23:33;6.40;99.90
49124;DHT22;48506;48.202;16.274;2023-11-22T04:26:00;6.50;99.90
49124;DHT22;48506;48.202;16.274;2023-11-22T04:28:30;6.50;99.90
49124;DHT22;48506;48.202;16.274;2023-11-22T04:30:56;6.40;99.90
49124;DHT22;48506;48.202;16.274;2023-11-22T04:33:23;6.40;99.90
49124;DHT22;48506;48.202;16.274;2023-11-22T04:35:50;6.30;99.90
49124;DHT22;48506;48.202;16.274;2023-11-22T04:38:16;6.30;99.90
49124;DHT22;48506;48.202;16.274;2023-11-22T04:40:44;6.40;99.90
49124;DHT22;48506;48.202;16.274;2023-11-22T04:43:10;6.40;99.90
49124;DHT22;48506;48.202;16.274;2023-11-22T04:45:37;6.40;99.90
49124;DHT22;48506;48.202;16.274;2023-11-22T04:48:04;6.40;99.90
49124;DHT22;48506;48.202;16.274;2023-11-22T04:50:30;6.40;99.90
49124;DHT22;48506;48.202;16.274;2023-11-22T04:52:57;6.40;99.90
49124;DHT22;48506;48.202;16.274;2023-11-22T04:55:23;6.30;99.90
49124;DHT22;48506;48.202;16.274;2023-11-22T04:57:50;6.20;99.90
49124;DHT22;48506;48.202;16.274;2023-11-22T05:00:16;6.20;99.90
49124;DHT22;48506;48.202;16.274;2023-11-22T05:02:43;6.20;99.90
49124;DHT22;48506;48.202;16.274;2023-11-22T05:05:09;6.20;99.90
49124;DHT22;48506;48.202;16.274;2023-11-22T05:07:39;6.20;99.90
49124;DHT22;48506;48.202;16.274;2023-11-22T05:10:06;6.10;99.90
49124;DHT22;48506;48.202;16.274;2023-11-22T05:12:34;6.10;99.90
49124;DHT22;48506;48.202;16.274;2023-11-22T05:15:01;6.00;99.90
49124;DHT22;48506;48.202;16.274;2023-11-22T05:17:27;6.00;99.90
49124;DHT22;48506;48.202;16.274;2023-11-22T05:19:54;6.00;99.90
49124;DHT22;48506;48.202;16.274;2023-11-22T05:22:20;6.00;99.90
49124;DHT22;48506;48.202;16.274;2023-11-22T05:24:46;6.00;99.90
49124;DHT22;48506;48.202;16.274;2023-11-22T05:27:13;6.00;99.90
49124;DHT22;48506;48.202;16.274;2023-11-22T05:29:39;6.00;99.90
49124;DHT22;48506;48.202;16.274;2023-11-22T05:32:05;6.00;99.90
49124;DHT22;48506;48.202;16.274;2023-11-22T05:34:32;6.10;99.90
49124;DHT22;48506;48.202;16.274;2023-11-22T05:36:58;6.10;99.90
49124;DHT22;48506;48.202;16.274;2023-11-22T05:39:24;6.10;99.90
49124;DHT22;48506;48.202;16.274;2023-11-22T05:41:53;6.00;99.90
49124;DHT22;48506;48.202;16.274;2023-11-22T05:44:19;6.00;99.90
49124;DHT22;48506;48.202;16.274;2023-11-22T05:46:45;6.00;99.90
49124;DHT22;48506;48.202;16.274;2023-11-22T05:49:11;6.00;99.90
49124;DHT22;48506;48.202;16.274;2023-11-22T05:51:38;6.00;99.90
49124;DHT22;48506;48.202;16.274;2023-11-22T05:54:04;6.00;99.90
49124;DHT22;48506;48.202;16.274;2023-11-22T05:56:30;5.90;99.90
49124;DHT22;48506;48.202;16.274;2023-11-22T05:58:58;5.90;99.90
49124;DHT22;48506;48.202;16.274;2023-11-22T06:01:26;5.90;99.90
49124;DHT22;48506;48.202;16.274;2023-11-22T06:03:55;5.80;99.90
49124;DHT22;48506;48.202;16.274;2023-11-22T06:06:21;5.90;99.90
49124;DHT22;48506;48.202;16.274;2023-11-22T06:08:48;5.90;99.90
49124;DHT22;48506;48.202;16.274;2023-11-22T06:11:14;5.90;99.90
49124;DHT22;48506;48.202;16.274;2023-11-22T06:13:41;5.90;99.90
49124;DHT22;48506;48.202;16.274;2023-11-22T06:16:08;5.80;99.90
49124;DHT22;48506;48.202;16.274;2023-11-22T06:18:35;5.80;99.90
49124;DHT22;48506;48.202;16.274;2023-11-22T06:21:09;5.80;99.90
49124;DHT22;48506;48.202;16.274;2023-11-22T06:23:36;5.70;99.90
49124;DHT22;48506;48.202;16.274;2023-11-22T06:26:02;5.80;99.90
49124;DHT22;48506;48.202;16.274;2023-11-22T06:28:28;5.70;99.90
49124;DHT22;48506;48.202;16.274;2023-11-22T06:30:55;5.70;99.90
49124;DHT22;48506;48.202;16.274;2023-11-22T06:33:21;5.70;99.90
49124;DHT22;48506;48.202;16.274;2023-11-22T06:35:47;5.70;99.90
49124;DHT22;48506;48.202;16.274;2023-11-22T06:38:13;5.70;99.90
49124;DHT22;48506;48.202;16.274;2023-11-22T06:40:39;5.70;99.90
49124;DHT22;48506;48.202;16.274;2023-11-22T06:43:05;5.70;99.90
49124;DHT22;48506;48.202;16.274;2023-11-22T06:45:32;5.70;99.90
49124;DHT22;48506;48.202;16.274;2023-11-22T06:47:59;5.70;99.90
49124;DHT22;48506;48.202;16.274;2023-11-22T06:50:25;5.70;99.90
49124;DHT22;48506;48.202;16.274;2023-11-22T06:52:52;5.70;99.90
49124;DHT22;48506;48.202;16.274;2023-11-22T06:55:19;5.60;99.90
49124;DHT22;48506;48.202;16.274;2023-11-22T06:57:45;5.60;99.90
49124;DHT22;48506;48.202;16.274;2023-11-22T07:00:11;5.60;99.90
49124;DHT22;48506;48.202;16.274;2023-11-22T07:02:42;5.60;99.90
49124;DHT22;48506;48.202;16.274;2023-11-22T07:05:08;5.60;99.90
49124;DHT22;48506;48.202;16.274;2023-11-22T07:07:38;5.50;99.90
49124;DHT22;48506;48.202;16.274;2023-11-22T07:10:05;5.50;99.90
49124;DHT22;48506;48.202;16.274;2023-11-22T07:12:32;5.40;99.90
49124;DHT22;48506;48.202;16.274;2023-11-22T07:15:00;5.40;99.90
49124;DHT22;48506;48.202;16.274;2023-11-22T07:17:26;5.50;99.90
49124;DHT22;48506;48.202;16.274;2023-11-22T07:19:54;5.50;99.90
49124;DHT22;48506;48.202;16.274;2023-11-22T07:22:20;5.50;99.90
49124;DHT22;48506;48.202;16.274;2023-11-22T07:24:48;5.40;99.90
49124;DHT22;48506;48.202;16.274;2023-11-22T07:27:18;5.50;99.90
49124;DHT22;48506;48.202;16.274;2023-11-22T07:29:45;5.40;99.90
49124;DHT22;48506;48.202;16.274;2023-11-22T07:32:12;5.50;99.90
49124;DHT22;48506;48.202;16.274;2023-11-22T07:34:39;5.50;99.90
49124;DHT22;48506;48.202;16.274;2023-11-22T07:37:07;5.50;99.90
49124;DHT22;48506;48.202;16.274;2023-11-22T07:39:36;5.50;99.90
49124;DHT22;48506;48.202;16.274;2023-11-22T07:42:04;5.60;99.90
49124;DHT22;48506;48.202;16.274;2023-11-22T07:44:34;5.60;99.90
49124;DHT22;48506;48.202;16.274;2023-11-22T07:47:02;5.50;99.90
49124;DHT22;48506;48.202;16.274;2023-11-22T07:49:29;5.50;99.90
49124;DHT22;48506;48.202;16.274;2023-11-22T07:51:56;5.60;99.90
49124;DHT22;48506;48.202;16.274;2023-11-22T07:54:22;5.60;99.90
49124;DHT22;48506;48.202;16.274;2023-11-22T07:56:52;5.60;99.90
49124;DHT22;48506;48.202;16.274;2023-11-22T07:59:18;5.50;99.90
49124;DHT22;48506;48.202;16.274;2023-11-22T08:01:45;5.50;99.90
49124;DHT22;48506;48.202;16.274;2023-11-22T08:04:14;5.50;99.90
49124;DHT22;48506;48.202;16.274;2023-11-22T08:06:41;5.40;99.90
49124;DHT22;48506;48.202;16.274;2023-11-22T08:09:07;5.40;99.90
49124;DHT22;48506;48.202;16.274;2023-11-22T08:11:36;5.40;99.90
49124;DHT22;48506;48.202;16.274;2023-11-22T08:14:02;5.40;99.90
49124;DHT22;48506;48.202;16.274;2023-11-22T08:16:30;5.40;99.90
49124;DHT22;48506;48.202;16.274;2023-11-22T08:18:56;5.30;99.90
49124;DHT22;48506;48.202;16.274;2023-11-22T08:21:23;5.30;99.90
49124;DHT22;48506;48.202;16.274;2023-11-22T08:23:49;5.30;99.90
49124;DHT22;48506;48.202;16.274;2023-11-22T08:26:16;5.40;99.90
49124;DHT22;48506;48.202;16.274;2023-11-22T08:28:43;5.30;99.90
49124;DHT22;48506;48.202;16.274;2023-11-22T08:31:10;5.30;99.90
49124;DHT22;48506;48.202;16.274;2023-11-22T08:33:40;5.30;99.90
49124;DHT22;48506;48.202;16.274;2023-11-22T08:36:07;5.30;99.90
49124;DHT22;48506;48.202;16.274;2023-11-22T08:38:35;5.30;99.90
49124;DHT22;48506;48.202;16.274;2023-11-22T08:41:05;5.30;99.90
49124;DHT22;48506;48.202;16.274;2023-11-22T08:43:32;5.40;99.90
49124;DHT22;48506;48.202;16.274;2023-11-22T08:46:00;5.50;99.90
49124;DHT22;48506;48.202;16.274;2023-11-22T08:48:30;5.50;99.90
49124;DHT22;48506;48.202;16.274;2023-11-22T08:50:56;5.50;99.90
49124;DHT22;48506;48.202;16.274;2023-11-22T08:53:23;5.50;99.90
49124;DHT22;48506;48.202;16.274;2023-11-22T08:55:49;5.70;99.90
49124;DHT22;48506;48.202;16.274;2023-11-22T08:58:15;5.70;99.90
49124;DHT22;48506;48.202;16.274;2023-11-22T09:00:42;5.60;99.90
49124;DHT22;48506;48.202;16.274;2023-11-22T09:03:08;5.60;99.90
49124;DHT22;48506;48.202;16.274;2023-11-22T09:05:42;5.60;99.90
49124;DHT22;48506;48.202;16.274;2023-11-22T09:08:08;5.60;99.90
49124;DHT22;48506;48.202;16.274;2023-11-22T09:10:41;5.70;99.90
49124;DHT22;48506;48.202;16.274;2023-11-22T09:13:10;5.70;99.90
49124;DHT22;48506;48.202;16.274;2023-11-22T09:15:36;5.70;99.90
49124;DHT22;48506;48.202;16.274;2023-11-22T09:18:05;5.70;99.90
49124;DHT22;48506;48.202;16.274;2023-11-22T09:20:32;5.70;99.90
49124;DHT22;48506;48.202;16.274;2023-11-22T09:22:57;5.70;99.90
49124;DHT22;48506;48.202;16.274;2023-11-22T09:25:25;5.70;99.90
49124;DHT22;48506;48.202;16.274;2023-11-22T09:27:55;5.70;99.90
49124;DHT22;48506;48.202;16.274;2023-11-22T09:30:27;5.70;99.90
49124;DHT22;48506;48.202;16.274;2023-11-22T09:33:14;5.80;99.80
49124;DHT22;48506;48.202;16.274;2023-11-22T09:35:41;5.70;99.90
49124;DHT22;48506;48.202;16.274;2023-11-22T09:38:09;5.70;99.80
49124;DHT22;48506;48.202;16.274;2023-11-22T09:40:43;5.70;99.70
49124;DHT22;48506;48.202;16.274;2023-11-22T09:43:09;5.80;99.90
49124;DHT22;48506;48.202;16.274;2023-11-22T09:45:36;5.90;99.90
49124;DHT22;48506;48.202;16.274;2023-11-22T09:48:15;5.90;99.90
49124;DHT22;48506;48.202;16.274;2023-11-22T09:53:40;6.00;99.50
49124;DHT22;48506;48.202;16.274;2023-11-22T09:56:08;6.00;99.40
49124;DHT22;48506;48.202;16.274;2023-11-22T09:58:39;5.90;99.10
49124;DHT22;48506;48.202;16.274;2023-11-22T10:01:05;5.90;99.50
49124;DHT22;48506;48.202;16.274;2023-11-22T10:03:33;6.00;99.20
49124;DHT22;48506;48.202;16.274;2023-11-22T10:05:59;6.00;99.40
49124;DHT22;48506;48.202;16.274;2023-11-22T10:08:26;6.00;99.00
49124;DHT22;48506;48.202;16.274;2023-11-22T10:10:59;6.10;98.40
49124;DHT22;48506;48.202;16.274;2023-11-22T10:13:25;6.00;98.70
49124;DHT22;48506;48.202;16.274;2023-11-22T10:15:53;5.90;99.10
49124;DHT22;48506;48.202;16.274;2023-11-22T10:18:20;5.80;99.00
49124;DHT22;48506;48.202;16.274;2023-11-22T10:20:51;5.80;99.30
49124;DHT22;48506;48.202;16.274;2023-11-22T10:23:18;5.80;99.30
49124;DHT22;48506;48.202;16.274;2023-11-22T10:25:50;5.70;98.90
49124;DHT22;48506;48.202;16.274;2023-11-22T10:28:18;5.70;99.20
49124;DHT22;48506;48.202;16.274;2023-11-22T10:30:48;5.70;99.10
49124;DHT22;48506;48.202;16.274;2023-11-22T10:33:16;5.80;99.30
49124;DHT22;48506;48.202;16.274;2023-11-22T10:35:45;5.80;99.00
49124;DHT22;48506;48.202;16.274;2023-11-22T10:38:16;5.90;99.50
49124;DHT22;48506;48.202;16.274;2023-11-22T10:40:43;5.90;99.20
49124;DHT22;48506;48.202;16.274;2023-11-22T10:43:16;6.00;99.30
49124;DHT22;48506;48.202;16.274;2023-11-22T10:45:44;6.00;98.90
49124;DHT22;48506;48.202;16.274;2023-11-22T10:48:18;6.00;99.30
49124;DHT22;48506;48.202;16.274;2023-11-22T10:50:45;6.10;99.30
49124;DHT22;48506;48.202;16.274;2023-11-22T10:53:12;6.10;98.70
49124;DHT22;48506;48.202;16.274;2023-11-22T10:55:48;6.00;98.40
49124;DHT22;48506;48.202;16.274;2023-11-22T10:58:15;5.90;98.90
49124;DHT22;48506;48.202;16.274;2023-11-22T11:00:42;5.90;99.30
49124;DHT22;48506;48.202;16.274;2023-11-22T11:03:18;5.90;99.20
49124;DHT22;48506;48.202;16.274;2023-11-22T11:06:00;6.00;99.20
49124;DHT22;48506;48.202;16.274;2023-11-22T11:08:31;6.10;99.20
49124;DHT22;48506;48.202;16.274;2023-11-22T11:10:57;6.10;98.70
49124;DHT22;48506;48.202;16.274;2023-11-22T11:13:27;6.00;98.90
49124;DHT22;48506;48.202;16.274;2023-11-22T11:15:54;6.00;98.90
49124;DHT22;48506;48.202;16.274;2023-11-22T11:18:20;6.00;98.90
49124;DHT22;48506;48.202;16.274;2023-11-22T11:20:57;6.00;98.80
49124;DHT22;48506;48.202;16.274;2023-11-22T11:23:27;6.00;98.90
49124;DHT22;48506;48.202;16.274;2023-11-22T11:25:56;6.00;99.00
49124;DHT22;48506;48.202;16.274;2023-11-22T11:28:25;6.10;99.00
49124;DHT22;48506;48.202;16.274;2023-11-22T11:30:54;6.10;98.20
49124;DHT22;48506;48.202;16.274;2023-11-22T11:33:54;6.10;98.40
49124;DHT22;48506;48.202;16.274;2023-11-22T11:38:53;6.20;98.10
49124;DHT22;48506;48.202;16.274;2023-11-22T11:41:28;6.20;97.80
49124;DHT22;48506;48.202;16.274;2023-11-22T11:43:56;6.20;97.70
49124;DHT22;48506;48.202;16.274;2023-11-22T11:46:24;6.10;97.60
49124;DHT22;48506;48.202;16.274;2023-11-22T11:48:51;6.10;97.20
49124;DHT22;48506;48.202;16.274;2023-11-22T11:51:21;6.00;97.20
49124;DHT22;48506;48.202;16.274;2023-11-22T11:53:48;6.00;97.30
49124;DHT22;48506;48.202;16.274;2023-11-22T11:56:16;6.00;97.20
49124;DHT22;48506;48.202;16.274;2023-11-22T11:58:46;6.00;97.50
49124;DHT22;48506;48.202;16.274;2023-11-22T12:01:14;6.00;97.50
49124;DHT22;48506;48.202;16.274;2023-11-22T12:03:51;6.00;97.50
49124;DHT22;48506;48.202;16.274;2023-11-22T12:06:18;6.00;97.50
49124;DHT22;48506;48.202;16.274;2023-11-22T12:08:45;6.00;97.30
49124;DHT22;48506;48.202;16.274;2023-11-22T12:11:14;5.90;97.20
49124;DHT22;48506;48.202;16.274;2023-11-22T12:13:42;5.90;97.60
49124;DHT22;48506;48.202;16.274;2023-11-22T12:16:16;5.90;97.90
49124;DHT22;48506;48.202;16.274;2023-11-22T12:18:49;6.00;97.70
49124;DHT22;48506;48.202;16.274;2023-11-22T12:21:16;5.90;97.50
49124;DHT22;48506;48.202;16.274;2023-11-22T12:23:45;5.90;97.40
49124;DHT22;48506;48.202;16.274;2023-11-22T12:26:14;5.90;97.50
49124;DHT22;48506;48.202;16.274;2023-11-22T12:28:41;5.80;97.50
49124;DHT22;48506;48.202;16.274;2023-11-22T12:31:09;5.80;97.60
49124;DHT22;48506;48.202;16.274;2023-11-22T12:33:36;5.80;97.60
49124;DHT22;48506;48.202;16.274;2023-11-22T12:36:03;5.80;97.40
49124;DHT22;48506;48.202;16.274;2023-11-22T12:38:30;5.80;97.50
49124;DHT22;48506;48.202;16.274;2023-11-22T12:40:59;5.70;97.80
49124;DHT22;48506;48.202;16.274;2023-11-22T12:43:26;5.80;97.70
49124;DHT22;48506;48.202;16.274;2023-11-22T12:46:05;5.80;98.00
49124;DHT22;48506;48.202;16.274;2023-11-22T12:48:39;5.80;97.70
49124;DHT22;48506;48.202;16.274;2023-11-22T12:51:15;5.70;97.80
49124;DHT22;48506;48.202;16.274;2023-11-22T12:53:52;5.70;97.50
49124;DHT22;48506;48.202;16.274;2023-11-22T12:56:18;5.60;97.90
49124;DHT22;48506;48.202;16.274;2023-11-22T12:58:44;5.70;98.10
49124;DHT22;48506;48.202;16.274;2023-11-22T13:01:10;5.70;97.90
49124;DHT22;48506;48.202;16.274;2023-11-22T13:03:36;5.70;97.70
49124;DHT22;48506;48.202;16.274;2023-11-22T13:06:02;5.70;97.90
49124;DHT22;48506;48.202;16.274;2023-11-22T13:08:29;5.70;97.50
49124;DHT22;48506;48.202;16.274;2023-11-22T13:10:56;5.60;97.50
49124;DHT22;48506;48.202;16.274;2023-11-22T13:13:24;5.60;97.90
49124;DHT22;48506;48.202;16.274;2023-11-22T13:15:53;5.70;97.90
49124;DHT22;48506;48.202;16.274;2023-11-22T13:18:19;5.70;98.00
49124;DHT22;48506;48.202;16.274;2023-11-22T13:20:45;5.70;97.80
49124;DHT22;48506;48.202;16.274;2023-11-22T13:23:12;5.70;98.00
49124;DHT22;48506;48.202;16.274;2023-11-22T13:25:40;5.70;98.00
49124;DHT22;48506;48.202;16.274;2023-11-22T13:28:10;5.70;97.90
49124;DHT22;48506;48.202;16.274;2023-11-22T13:30:36;5.80;97.90
49124;DHT22;48506;48.202;16.274;2023-11-22T13:33:02;5.80;97.70
49124;DHT22;48506;48.202;16.274;2023-11-22T13:35:29;5.80;97.80
49124;DHT22;48506;48.202;16.274;2023-11-22T13:38:03;5.90;97.70
49124;DHT22;48506;48.202;16.274;2023-11-22T13:40:36;6.00;97.80
49124;DHT22;48506;48.202;16.274;2023-11-22T13:43:05;5.90;97.40
49124;DHT22;48506;48.202;16.274;2023-11-22T13:45:31;5.90;97.50
49124;DHT22;48506;48.202;16.274;2023-11-22T13:47:56;5.80;97.20
49124;DHT22;48506;48.202;16.274;2023-11-22T13:50:26;5.70;97.40
49124;DHT22;48506;48.202;16.274;2023-11-22T13:52:54;5.60;97.60
49124;DHT22;48506;48.202;16.274;2023-11-22T13:55:21;5.70;97.70
49124;DHT22;48506;48.202;16.274;2023-11-22T13:57:55;5.70;97.50
49124;DHT22;48506;48.202;16.274;2023-11-22T14:00:24;5.70;97.50
49124;DHT22;48506;48.202;16.274;2023-11-22T14:02:53;5.70;97.70
49124;DHT22;48506;48.202;16.274;2023-11-22T14:05:26;5.60;97.20
49124;DHT22;48506;48.202;16.274;2023-11-22T14:07:53;5.60;97.20
49124;DHT22;48506;48.202;16.274;2023-11-22T14:10:21;5.60;97.60
49124;DHT22;48506;48.202;16.274;2023-11-22T14:12:49;5.60;97.60
49124;DHT22;48506;48.202;16.274;2023-11-22T14:15:15;5.70;97.70
49124;DHT22;48506;48.202;16.274;2023-11-22T14:17:42;5.70;97.50
49124;DHT22;48506;48.202;16.274;2023-11-22T14:20:12;5.70;97.50
49124;DHT22;48506;48.202;16.274;2023-11-22T14:22:39;5.70;97.20
49124;DHT22;48506;48.202;16.274;2023-11-22T14:25:07;5.70;97.00
49124;DHT22;48506;48.202;16.274;2023-11-22T14:27:40;5.60;97.20
49124;DHT22;48506;48.202;16.274;2023-11-22T14:30:07;5.60;97.30
49124;DHT22;48506;48.202;16.274;2023-11-22T14:32:35;5.60;97.30
49124;DHT22;48506;48.202;16.274;2023-11-22T14:35:05;5.60;97.10
49124;DHT22;48506;48.202;16.274;2023-11-22T14:37:32;5.50;97.30
49124;DHT22;48506;48.202;16.274;2023-11-22T14:40:00;5.60;97.50
49124;DHT22;48506;48.202;16.274;2023-11-22T14:42:26;5.50;97.30
49124;DHT22;48506;48.202;16.274;2023-11-22T14:44:53;5.50;97.30
49124;DHT22;48506;48.202;16.274;2023-11-22T14:47:22;5.60;97.70
49124;DHT22;48506;48.202;16.274;2023-11-22T14:49:52;5.60;97.40
49124;DHT22;48506;48.202;16.274;2023-11-22T14:52:19;5.60;97.50
49124;DHT22;48506;48.202;16.274;2023-11-22T14:54:46;5.70;97.70
49124;DHT22;48506;48.202;16.274;2023-11-22T14:57:13;5.70;97.50
49124;DHT22;48506;48.202;16.274;2023-11-22T14:59:43;5.70;97.30
49124;DHT22;48506;48.202;16.274;2023-11-22T15:02:14;5.70;97.20
49124;DHT22;48506;48.202;16.274;2023-11-22T15:04:41;5.70;97.20
49124;DHT22;48506;48.202;16.274;2023-11-22T15:07:08;5.60;96.70
49124;DHT22;48506;48.202;16.274;2023-11-22T15:09:34;5.50;97.00
49124;DHT22;48506;48.202;16.274;2023-11-22T15:12:01;5.50;97.20
49124;DHT22;48506;48.202;16.274;2023-11-22T15:14:33;5.50;97.30
49124;DHT22;48506;48.202;16.274;2023-11-22T15:17:02;5.50;97.20
49124;DHT22;48506;48.202;16.274;2023-11-22T15:19:32;5.50;97.20
49124;DHT22;48506;48.202;16.274;2023-11-22T15:21:58;5.50;97.40
49124;DHT22;48506;48.202;16.274;2023-11-22T15:24:24;5.50;97.00
49124;DHT22;48506;48.202;16.274;2023-11-22T15:26:52;5.50;96.90
49124;DHT22;48506;48.202;16.274;2023-11-22T15:29:18;5.40;97.10
49124;DHT22;48506;48.202;16.274;2023-11-22T15:31:44;5.40;97.40
49124;DHT22;48506;48.202;16.274;2023-11-22T15:34:10;5.50;97.30
49124;DHT22;48506;48.202;16.274;2023-11-22T15:36:37;5.50;97.10
49124;DHT22;48506;48.202;16.274;2023-11-22T15:39:03;5.50;97.00